KFRG/FRG METAR and TAF weather

Enter ICAO airport designator
Station Type Date Time Source
KFRG METAR 2019/08/18 18:53 UTC NOAA

KFRG 181853Z 20009KT 10SM CLR 29/23 A3001 RMK AO2 SLP160 T02940233


Station Type Date Time Source
KFRG Decoded METAR 2019/08/18 18:53 UTC NOAA

Station name not available
Aug 18, 2019 - 02:53 PM EDT / 2019.08.18 1853 UTC
Wind: from the SSW (200 degrees) at 10 MPH (9 KT):0
Visibility: 10 mile(s):0
Sky conditions: clear
Temperature: 84.9 F (29.4 C)
Dew Point: 73.9 F (23.3 C)
Relative Humidity: 69%
Pressure (altimeter): 30.01 in. Hg (1016 hPa)
ob: KFRG 181853Z 20009KT 10SM CLR 29/23 A3001 RMK AO2 SLP160 T02940233
cycle: 19

Station Type Date Time Source
KFRG TAF UTC NOAA

Error!

Example: see airport list